Amador City, California
Current Conditions -  °F | °C
As of 7:55 PM on Saturday 20 Dec 2014 (Local Time) from KPVF Reporting Station
Overcast Overcast  
Wind Chill:   Ceiling: 3600
Heat Index:   Visibility: 8mi
Dew Point:   Wind: 5mph
Humidity: 100%   Direction: 140°SE
Pressure: 30.26"   Gusts: NA
Location:  38.42°N, 120.82°W
Report Text: KPVF 210355Z AUTO 14004KT 8SM OVC036 08/08 A3026 RMK AO1
Loading
Personal Weather Stations






























Interactive Weather Map New forecast layout! Learn more

10-Day Weather Forecast

Advertisements
Track Severe Weather on mobile